createdAt,value
2023-01-25T00:02:08.598Z,222.88
2023-01-25T00:04:35.493Z,171.68
2023-01-25T00:07:02.305Z,200.20
2023-01-25T00:09:29.050Z,193.27
2023-01-25T00:11:57.958Z,101.00
2023-01-25T00:14:25.228Z,67.88
2023-01-25T00:16:52.302Z,126.15
2023-01-25T00:19:19.293Z,153.07
2023-01-25T00:21:46.125Z,48.25
2023-01-25T00:24:14.336Z,123.97
2023-01-25T00:26:45.763Z,255.95
2023-01-25T00:29:14.134Z,93.38
2023-01-25T00:31:45.016Z,109.38
2023-01-25T00:34:42.608Z,147.18
2023-01-25T00:37:14.079Z,128.75
2023-01-25T00:39:41.157Z,516.13
2023-01-25T00:42:11.703Z,310.33
2023-01-25T00:44:39.591Z,187.88
2023-01-25T00:47:06.817Z,497.70
2023-01-25T00:49:33.879Z,295.90
2023-01-25T00:52:00.769Z,258.60
2023-01-25T00:54:27.566Z,146.40
2023-01-25T00:56:58.606Z,267.65
2023-01-25T00:59:25.893Z,217.27
2023-01-25T01:01:53.048Z,393.92
2023-01-25T01:04:26.446Z,444.25
2023-01-25T01:06:53.989Z,421.42
2023-01-25T01:09:21.822Z,383.90
2023-01-25T01:11:49.007Z,590.50
2023-01-25T01:14:15.678Z,649.47
2023-01-25T01:16:42.690Z,1067.05
2023-01-25T01:19:09.787Z,749.50
2023-01-25T01:21:36.534Z,437.52
2023-01-25T01:24:03.433Z,484.10
2023-01-25T01:26:30.224Z,1053.18
2023-01-25T01:28:58.762Z,788.95
2023-01-25T01:31:25.900Z,554.63
2023-01-25T01:33:54.476Z,530.25
2023-01-25T01:36:24.020Z,461.40
2023-01-25T01:38:50.835Z,187.82
2023-01-25T01:41:18.186Z,925.47
2023-01-25T01:43:45.788Z,884.60
2023-01-25T01:46:37.378Z,1178.22
2023-01-25T01:49:15.897Z,403.95
2023-01-25T01:52:06.824Z,620.20
2023-01-25T01:54:42.046Z,898.63
2023-01-25T01:57:31.082Z,519.60
2023-01-25T02:00:05.802Z,623.60
2023-01-25T02:02:32.504Z,464.83
2023-01-25T02:05:05.241Z,584.72
2023-01-25T02:07:35.292Z,637.55
2023-01-25T02:10:05.800Z,610.13
2023-01-25T02:12:32.648Z,404.75
2023-01-25T02:14:59.305Z,641.92
2023-01-25T02:17:28.966Z,745.22
2023-01-25T02:20:17.758Z,882.65
2023-01-25T02:22:58.422Z,894.05
2023-01-25T02:25:25.753Z,683.92
2023-01-25T02:28:04.239Z,367.20
2023-01-25T02:30:31.349Z,773.75
2023-01-25T02:32:58.018Z,444.50
2023-01-25T02:35:51.396Z,644.22
2023-01-25T02:38:20.160Z,643.38
2023-01-25T02:41:06.891Z,716.78
2023-01-25T02:43:35.380Z,697.30
2023-01-25T02:46:30.417Z,921.42
2023-01-25T02:48:57.993Z,736.65
2023-01-25T02:51:26.795Z,728.63
2023-01-25T02:53:53.487Z,1044.13
2023-01-25T02:56:23.238Z,776.67
2023-01-25T02:58:50.183Z,1230.82
2023-01-25T03:01:17.284Z,688.58
2023-01-25T03:03:44.134Z,543.35
2023-01-25T03:06:10.857Z,403.38
2023-01-25T03:08:37.617Z,314.83
2023-01-25T03:11:06.378Z,509.60
2023-01-25T03:13:34.667Z,522.22
2023-01-25T03:16:07.905Z,440.92
2023-01-25T03:18:36.122Z,482.60
2023-01-25T03:21:08.033Z,449.13
2023-01-25T03:23:35.054Z,521.33
2023-01-25T03:26:16.653Z,491.27
2023-01-25T03:28:44.000Z,1015.60
2023-01-25T03:31:12.269Z,625.17
2023-01-25T03:33:39.705Z,703.03
2023-01-25T03:36:07.141Z,848.58
2023-01-25T03:38:34.603Z,1056.47
2023-01-25T03:41:01.692Z,750.10
2023-01-25T03:43:28.804Z,712.20
2023-01-25T03:45:58.522Z,710.65
2023-01-25T03:48:26.186Z,1013.50
2023-01-25T03:50:57.855Z,661.13
2023-01-25T03:53:28.992Z,862.38
2023-01-25T03:56:04.371Z,1016.88
2023-01-25T03:58:31.433Z,837.17
2023-01-25T04:01:00.037Z,839.90
2023-01-25T04:03:28.124Z,1442.03
2023-01-25T04:05:56.530Z,704.38
2023-01-25T04:08:24.663Z,493.45
2023-01-25T04:10:56.872Z,925.95
2023-01-25T04:13:24.934Z,898.05
2023-01-25T04:15:52.306Z,1067.45
2023-01-25T04:18:19.582Z,212.25
2023-01-25T04:20:46.545Z,706.67
2023-01-25T04:23:13.281Z,932.25
2023-01-25T04:25:40.030Z,211.38
2023-01-25T04:28:06.775Z,864.50
2023-01-25T04:30:33.620Z,860.42
2023-01-25T04:33:05.164Z,850.22
2023-01-25T04:35:32.181Z,528.20
2023-01-25T04:37:59.741Z,966.58
2023-01-25T04:40:26.882Z,720.85
2023-01-25T04:42:53.585Z,800.90
2023-01-25T04:45:20.323Z,735.28
2023-01-25T04:47:46.981Z,599.95
2023-01-25T04:50:13.647Z,852.85
2023-01-25T04:52:40.299Z,425.40
2023-01-25T04:55:07.767Z,509.10
2023-01-25T04:57:34.688Z,623.92
2023-01-25T05:00:01.489Z,758.90
2023-01-25T05:02:28.267Z,727.50
2023-01-25T05:04:55.068Z,852.10
2023-01-25T05:07:21.755Z,793.95
2023-01-25T05:09:48.427Z,907.97
2023-01-25T05:12:15.081Z,462.58
2023-01-25T05:14:41.776Z,326.50
2023-01-25T05:17:09.007Z,717.50
2023-01-25T05:19:35.960Z,695.08
2023-01-25T05:22:07.305Z,813.55
2023-01-25T05:24:35.321Z,409.10
2023-01-25T05:27:05.825Z,520.22
2023-01-25T05:29:43.236Z,681.75
2023-01-25T05:32:14.248Z,414.65
2023-01-25T05:34:41.688Z,535.33
2023-01-25T05:37:10.115Z,219.93
2023-01-25T05:39:36.917Z,219.98
2023-01-25T05:42:03.904Z,97.85
2023-01-25T05:44:30.525Z,99.63
2023-01-25T05:46:57.245Z,683.35
2023-01-25T05:49:23.937Z,208.40
2023-01-25T05:51:50.616Z,187.95
2023-01-25T05:54:18.338Z,459.88
2023-01-25T05:56:45.413Z,615.88
2023-01-25T05:59:12.863Z,215.98
2023-01-25T06:01:39.902Z,195.48
2023-01-25T06:04:06.955Z,509.83
2023-01-25T06:06:33.652Z,46.28
2023-01-25T06:09:01.459Z,150.98
2023-01-25T06:11:28.240Z,328.00
2023-01-25T06:13:54.908Z,289.15
2023-01-25T06:16:21.630Z,321.23
2023-01-25T06:18:48.422Z,42.55
2023-01-25T06:21:15.151Z,63.85
2023-01-25T06:23:44.197Z,77.40
2023-01-25T06:26:16.018Z,81.53
2023-01-25T06:28:43.079Z,51.85
2023-01-25T06:31:11.069Z,39.85
2023-01-25T06:33:38.474Z,60.55
2023-01-25T06:36:14.397Z,104.18
2023-01-25T06:38:42.128Z,144.05
2023-01-25T06:41:12.120Z,56.22
2023-01-25T06:43:39.626Z,131.50
2023-01-25T06:46:08.978Z,352.92
2023-01-25T06:48:36.113Z,784.13
2023-01-25T06:51:08.017Z,593.00
2023-01-25T06:53:38.337Z,245.40
2023-01-25T06:56:17.778Z,74.60
2023-01-25T06:58:45.143Z,52.50
2023-01-25T07:01:20.021Z,37.45
2023-01-25T07:03:51.878Z,35.90
2023-01-25T07:06:19.407Z,24.90
2023-01-25T07:08:46.398Z,45.95
2023-01-25T07:11:14.033Z,33.58
2023-01-25T07:13:48.775Z,39.03
2023-01-25T07:16:19.949Z,46.15
2023-01-25T07:18:47.524Z,40.55
2023-01-25T07:21:22.694Z,39.25
2023-01-25T07:23:50.429Z,61.10
2023-01-25T07:26:21.079Z,45.70
2023-01-25T07:28:48.526Z,71.95
2023-01-25T07:31:16.679Z,39.00
2023-01-25T07:33:44.051Z,37.03
2023-01-25T07:36:11.897Z,40.60
2023-01-25T07:38:38.714Z,35.65
2023-01-25T07:41:06.270Z,36.72
2023-01-25T07:43:33.052Z,40.90
2023-01-25T07:46:12.442Z,33.58
2023-01-25T07:48:40.435Z,51.08
2023-01-25T07:51:13.040Z,58.03
2023-01-25T07:53:41.108Z,37.45
2023-01-25T07:56:09.232Z,28.58
2023-01-25T07:58:36.069Z,37.63
2023-01-25T08:01:14.053Z,44.35
2023-01-25T08:03:41.343Z,55.45
2023-01-25T08:06:08.953Z,30.90
2023-01-25T08:08:38.145Z,61.85
2023-01-25T08:11:16.148Z,45.78
2023-01-25T08:13:46.307Z,28.63
2023-01-25T08:16:14.232Z,33.92
2023-01-25T08:18:40.932Z,31.70
2023-01-25T08:21:08.049Z,66.82
2023-01-25T08:23:34.875Z,217.18
2023-01-25T08:26:05.759Z,33.25
2023-01-25T08:28:32.872Z,45.08
2023-01-25T08:31:21.110Z,51.78
2023-01-25T08:33:48.417Z,34.03
2023-01-25T08:36:16.720Z,33.40
2023-01-25T08:38:43.501Z,32.90
2023-01-25T08:41:14.264Z,26.98
2023-01-25T08:43:41.179Z,31.20
2023-01-25T08:46:08.158Z,30.30
2023-01-25T08:48:35.039Z,34.70
2023-01-25T08:51:01.783Z,30.70
2023-01-25T08:53:30.483Z,29.17
2023-01-25T08:55:57.293Z,60.25
2023-01-25T08:58:24.023Z,46.75
2023-01-25T09:00:50.698Z,45.38
2023-01-25T09:03:18.270Z,34.83
2023-01-25T09:05:45.057Z,28.83
2023-01-25T09:08:11.830Z,41.25
2023-01-25T09:10:38.489Z,46.47
2023-01-25T09:13:07.014Z,29.45
2023-01-25T09:15:35.146Z,53.33
2023-01-25T09:18:01.804Z,197.60
2023-01-25T09:20:30.547Z,42.53
2023-01-25T09:22:59.950Z,40.10
2023-01-25T09:25:26.832Z,31.92
2023-01-25T09:27:53.498Z,36.08
2023-01-25T09:30:21.241Z,26.10
2023-01-25T09:32:50.644Z,30.70
2023-01-25T09:35:17.788Z,55.38
2023-01-25T09:37:44.478Z,29.38
2023-01-25T09:40:38.865Z,33.65
2023-01-25T09:43:43.400Z,26.40
2023-01-25T09:46:22.432Z,22.60
2023-01-25T09:49:11.570Z,27.65
2023-01-25T09:51:57.646Z,31.83
2023-01-25T09:54:26.526Z,33.60
2023-01-25T09:56:54.469Z,28.05
2023-01-25T09:59:26.377Z,31.20
2023-01-25T10:02:04.435Z,30.52
2023-01-25T10:04:39.332Z,23.30
2023-01-25T10:07:34.567Z,23.45
2023-01-25T10:10:07.112Z,29.30
2023-01-25T10:12:37.652Z,25.20
2023-01-25T10:15:22.546Z,25.60
2023-01-25T10:18:04.241Z,50.95
2023-01-25T10:20:41.416Z,31.85
2023-01-25T10:23:44.526Z,27.60
2023-01-25T10:26:14.322Z,23.08
2023-01-25T10:28:44.943Z,20.23
2023-01-25T10:31:20.396Z,25.10
2023-01-25T10:33:48.980Z,23.33
2023-01-25T10:36:26.721Z,24.33
2023-01-25T10:39:01.167Z,37.00
2023-01-25T10:41:38.368Z,33.63
2023-01-25T10:44:23.966Z,25.23
2023-01-25T10:47:07.123Z,37.63
2023-01-25T10:49:55.893Z,31.00
2023-01-25T10:52:30.472Z,36.13
2023-01-25T10:55:19.664Z,21.50
2023-01-25T10:57:50.405Z,24.23
2023-01-25T11:00:20.588Z,30.73
2023-01-25T11:02:48.301Z,23.67
2023-01-25T11:05:28.939Z,27.52
2023-01-25T11:07:56.950Z,18.48
2023-01-25T11:10:35.718Z,29.20
2023-01-25T11:13:26.791Z,21.73
2023-01-25T11:16:13.456Z,26.48
2023-01-25T11:18:51.497Z,20.92
2023-01-25T11:21:23.110Z,29.83
2023-01-25T11:24:09.153Z,21.33
2023-01-25T11:26:39.347Z,28.75
2023-01-25T11:29:20.650Z,26.70
2023-01-25T11:31:54.387Z,21.90
2023-01-25T11:34:25.067Z,74.70
2023-01-25T11:37:02.501Z,24.83
2023-01-25T11:39:43.562Z,33.05
2023-01-25T11:42:46.887Z,43.17
2023-01-25T11:45:51.315Z,44.78
2023-01-25T11:48:43.646Z,35.85
2023-01-25T11:51:17.495Z,26.63
2023-01-25T11:54:08.500Z,22.05
2023-01-25T11:56:57.530Z,23.73
2023-01-25T11:59:30.297Z,23.98
2023-01-25T12:02:12.065Z,33.72
2023-01-25T12:04:57.692Z,38.53
2023-01-25T12:07:44.705Z,24.63
2023-01-25T12:10:29.497Z,25.23
2023-01-25T12:13:03.106Z,30.52
2023-01-25T12:15:44.050Z,26.90
2023-01-25T12:18:31.808Z,23.98
2023-01-25T12:21:26.364Z,20.95
2023-01-25T12:24:30.379Z,20.65
2023-01-25T12:27:32.863Z,23.30
2023-01-25T12:30:16.208Z,20.23
2023-01-25T12:33:02.431Z,24.25
2023-01-25T12:35:41.545Z,21.73
2023-01-25T12:38:15.344Z,20.70
2023-01-25T12:40:58.137Z,23.20
2023-01-25T12:43:36.003Z,22.60
2023-01-25T12:46:12.627Z,24.90
2023-01-25T12:48:47.429Z,21.15
2023-01-25T12:51:16.258Z,22.60
2023-01-25T12:53:48.168Z,21.80
2023-01-25T12:56:46.893Z,21.48
2023-01-25T13:00:05.753Z,25.05
2023-01-25T13:02:32.375Z,23.13
2023-01-25T13:05:15.931Z,30.20
2023-01-25T13:07:54.493Z,54.47
2023-01-25T13:10:34.948Z,23.02
2023-01-25T13:13:16.836Z,23.00
2023-01-25T13:15:45.524Z,23.83
2023-01-25T13:18:33.625Z,22.10
2023-01-25T13:21:03.917Z,21.08
2023-01-25T13:23:37.713Z,24.23
2023-01-25T13:26:25.493Z,24.48
2023-01-25T13:28:54.073Z,28.92
2023-01-25T13:31:53.793Z,37.13
2023-01-25T13:34:35.727Z,28.80
2023-01-25T13:37:25.809Z,36.08
2023-01-25T13:40:32.432Z,29.63
2023-01-25T13:43:04.315Z,27.00
2023-01-25T13:45:35.252Z,23.08
2023-01-25T13:48:18.979Z,23.05
2023-01-25T13:50:47.196Z,24.27
2023-01-25T13:53:16.650Z,25.10
2023-01-25T13:55:46.504Z,27.67
2023-01-25T13:58:26.502Z,23.92
2023-01-25T14:00:57.551Z,36.00
2023-01-25T14:03:30.366Z,33.03
2023-01-25T14:06:00.132Z,25.00
2023-01-25T14:08:28.151Z,24.63
2023-01-25T14:10:56.121Z,26.33
2023-01-25T14:13:23.032Z,31.00
2023-01-25T14:16:09.559Z,30.58
2023-01-25T14:18:40.697Z,25.08
2023-01-25T14:21:21.632Z,36.03
2023-01-25T14:23:49.071Z,25.45
2023-01-25T14:26:25.314Z,34.20
2023-01-25T14:29:01.248Z,28.70
2023-01-25T14:31:34.189Z,42.15
2023-01-25T14:36:34.187Z,54.75
2023-01-25T14:39:03.095Z,28.65
2023-01-25T14:41:41.914Z,50.38
2023-01-25T14:44:15.088Z,40.35
2023-01-25T14:46:42.224Z,32.70
2023-01-25T14:49:13.049Z,28.00
2023-01-25T14:51:56.936Z,30.17
2023-01-25T14:54:54.292Z,28.63
2023-01-25T14:57:40.466Z,33.20
2023-01-25T15:00:27.400Z,34.15
2023-01-25T15:02:57.384Z,28.27
2023-01-25T15:05:28.954Z,27.60
2023-01-25T15:08:26.350Z,23.23
2023-01-25T15:10:58.469Z,30.73
2023-01-25T15:13:28.723Z,30.40
2023-01-25T15:15:58.881Z,47.10
2023-01-25T15:18:53.450Z,28.52
2023-01-25T15:21:29.431Z,27.90
2023-01-25T15:23:58.342Z,39.35
2023-01-25T15:26:30.122Z,27.88
2023-01-25T15:29:02.925Z,34.53
2023-01-25T15:31:34.856Z,31.08
2023-01-25T15:34:01.912Z,35.33
2023-01-25T15:36:30.001Z,44.78
2023-01-25T15:38:56.864Z,32.47
2023-01-25T15:41:23.531Z,36.15
2023-01-25T15:43:50.697Z,33.63
2023-01-25T15:46:22.454Z,36.35
2023-01-25T15:48:50.481Z,79.05
2023-01-25T15:51:17.303Z,47.60
2023-01-25T15:53:44.041Z,63.33
2023-01-25T15:56:16.795Z,38.05
2023-01-25T15:58:47.430Z,76.15
2023-01-25T16:01:14.194Z,38.90
2023-01-25T16:03:41.468Z,47.78
2023-01-25T16:06:28.634Z,67.30
2023-01-25T16:08:55.447Z,45.05
2023-01-25T16:11:22.099Z,96.97
2023-01-25T16:13:48.775Z,52.05
2023-01-25T16:16:23.680Z,46.60
2023-01-25T16:18:50.697Z,41.17
2023-01-25T16:21:17.511Z,46.67
2023-01-25T16:23:44.260Z,50.40
2023-01-25T16:26:25.439Z,40.67
2023-01-25T16:28:52.272Z,54.45
2023-01-25T16:31:31.821Z,59.28
2023-01-25T16:33:59.029Z,44.95
2023-01-25T16:36:25.904Z,98.10
2023-01-25T16:38:52.745Z,146.88
2023-01-25T16:41:19.664Z,62.63
2023-01-25T16:43:48.294Z,54.03
2023-01-25T16:46:19.412Z,81.97
2023-01-25T16:48:47.414Z,94.53
2023-01-25T16:51:18.747Z,129.52
2023-01-25T16:53:46.448Z,77.07
2023-01-25T16:56:22.079Z,132.18
2023-01-25T16:58:50.138Z,57.35
2023-01-25T17:01:19.091Z,48.03
2023-01-25T17:03:46.655Z,62.85
2023-01-25T17:06:18.762Z,49.90
2023-01-25T17:08:46.592Z,111.88
2023-01-25T17:11:13.605Z,63.35
2023-01-25T17:13:40.535Z,53.10
2023-01-25T17:16:08.070Z,55.88
2023-01-25T17:18:35.023Z,66.47
2023-01-25T17:21:04.529Z,58.78
2023-01-25T17:23:35.460Z,62.17
2023-01-25T17:26:10.929Z,66.75
2023-01-25T17:28:37.700Z,144.82
2023-01-25T17:31:04.910Z,88.95
2023-01-25T17:33:32.219Z,58.78
2023-01-25T17:36:02.711Z,70.80
2023-01-25T17:38:29.310Z,69.72
2023-01-25T17:40:56.203Z,58.50
2023-01-25T17:43:22.889Z,86.15
2023-01-25T17:45:49.630Z,58.80
2023-01-25T17:48:17.241Z,55.00
2023-01-25T17:50:43.910Z,76.95
2023-01-25T17:53:11.371Z,285.50
2023-01-25T17:55:38.913Z,166.98
2023-01-25T17:58:05.915Z,215.75
2023-01-25T18:00:32.865Z,124.55
2023-01-25T18:02:59.754Z,95.88
2023-01-25T18:05:29.595Z,97.30
2023-01-25T18:07:56.241Z,87.88
2023-01-25T18:10:23.185Z,80.60
2023-01-25T18:13:03.629Z,109.22
2023-01-25T18:15:31.522Z,74.75
2023-01-25T18:17:58.416Z,60.95
2023-01-25T18:20:25.056Z,74.97
2023-01-25T18:22:52.061Z,62.63
2023-01-25T18:25:39.093Z,67.65
2023-01-25T18:28:05.779Z,76.65
2023-01-25T18:30:42.957Z,96.40
2023-01-25T18:33:09.781Z,85.53
2023-01-25T18:35:36.678Z,68.10
2023-01-25T18:38:03.449Z,95.22
2023-01-25T18:40:30.486Z,77.20
2023-01-25T18:42:58.381Z,84.38
2023-01-25T18:45:25.173Z,171.80
2023-01-25T18:47:51.985Z,83.35
2023-01-25T18:50:18.698Z,82.93
2023-01-25T18:52:45.462Z,113.72
2023-01-25T18:55:12.683Z,70.65
2023-01-25T18:57:39.745Z,82.68
2023-01-25T19:00:07.243Z,95.90
2023-01-25T19:02:34.037Z,88.70
2023-01-25T19:05:00.691Z,74.63
2023-01-25T19:07:27.394Z,63.72
2023-01-25T19:09:54.075Z,109.68
2023-01-25T19:12:20.725Z,73.75
2023-01-25T19:14:47.413Z,75.90
2023-01-25T19:17:14.106Z,100.22
2023-01-25T19:19:42.382Z,138.50
2023-01-25T19:22:09.062Z,53.00
2023-01-25T19:24:35.872Z,59.22
2023-01-25T19:27:03.389Z,60.97
2023-01-25T19:29:30.118Z,68.45
2023-01-25T19:31:56.905Z,60.45
2023-01-25T19:34:23.692Z,73.93
2023-01-25T19:36:50.602Z,52.45
2023-01-25T19:39:17.755Z,78.70
2023-01-25T19:41:44.538Z,83.35
2023-01-25T19:44:13.680Z,194.73
2023-01-25T19:46:40.914Z,148.48
2023-01-25T19:49:09.825Z,103.63
2023-01-25T19:51:39.816Z,71.55
2023-01-25T19:54:11.246Z,56.15
2023-01-25T19:56:40.272Z,65.67
2023-01-25T19:59:10.981Z,93.03
2023-01-25T20:01:43.610Z,87.55
2023-01-25T20:04:12.856Z,86.38
2023-01-25T20:06:40.177Z,84.45
2023-01-25T20:09:07.036Z,94.07
2023-01-25T20:11:34.619Z,92.93
2023-01-25T20:14:03.958Z,111.70
2023-01-25T20:16:32.396Z,87.20
2023-01-25T20:19:00.175Z,105.20
2023-01-25T20:21:28.747Z,69.68
2023-01-25T20:24:00.227Z,110.03
2023-01-25T20:26:37.321Z,99.50
2023-01-25T20:29:04.708Z,150.02
2023-01-25T20:31:43.237Z,132.05
2023-01-25T20:34:15.800Z,136.88
2023-01-25T20:36:43.543Z,125.82
2023-01-25T20:39:14.014Z,113.47
2023-01-25T20:41:40.762Z,105.47
2023-01-25T20:44:08.742Z,95.20
2023-01-25T20:46:40.173Z,81.65
2023-01-25T20:49:14.081Z,68.53
2023-01-25T20:51:42.710Z,68.45
2023-01-25T20:54:09.556Z,68.90
2023-01-25T20:56:36.649Z,73.05
2023-01-25T20:59:03.468Z,74.63
2023-01-25T21:01:36.514Z,104.38
2023-01-25T21:04:05.068Z,85.90
2023-01-25T21:06:31.765Z,72.72
2023-01-25T21:08:59.295Z,53.70
2023-01-25T21:11:26.189Z,65.35
2023-01-25T21:13:56.345Z,61.53
2023-01-25T21:16:23.528Z,62.35
2023-01-25T21:18:56.373Z,78.97
2023-01-25T21:21:28.586Z,71.03
2023-01-25T21:23:58.089Z,90.82
2023-01-25T21:26:27.509Z,61.75
2023-01-25T21:28:54.608Z,109.50
2023-01-25T21:31:23.408Z,67.25
2023-01-25T21:33:50.288Z,84.35
2023-01-25T21:36:18.121Z,79.68
2023-01-25T21:38:50.366Z,87.47
2023-01-25T21:41:24.366Z,53.78
2023-01-25T21:44:11.361Z,55.50
2023-01-25T21:46:38.886Z,65.93
2023-01-25T21:49:27.128Z,73.63
2023-01-25T21:51:56.296Z,66.85
2023-01-25T21:54:28.858Z,55.17
2023-01-25T21:56:57.165Z,61.88
2023-01-25T21:59:24.225Z,60.70
2023-01-25T22:01:52.040Z,63.65
2023-01-25T22:04:20.956Z,79.03
2023-01-25T22:06:52.213Z,61.28
2023-01-25T22:09:19.186Z,49.90
2023-01-25T22:11:46.165Z,58.88
2023-01-25T22:14:14.198Z,48.35
2023-01-25T22:16:41.074Z,48.67
2023-01-25T22:19:07.845Z,46.58
2023-01-25T22:21:34.596Z,47.58
2023-01-25T22:24:03.901Z,51.72
2023-01-25T22:26:39.719Z,42.55
2023-01-25T22:29:06.380Z,54.67
2023-01-25T22:31:33.205Z,44.95
2023-01-25T22:34:00.248Z,48.80
2023-01-25T22:36:29.452Z,41.20
2023-01-25T22:51:32.785Z,69.05
2023-01-25T22:54:00.390Z,101.85
2023-01-25T22:56:32.168Z,50.13
2023-01-25T22:59:00.130Z,137.75
2023-01-25T23:01:30.062Z,106.55
2023-01-25T23:03:57.315Z,271.38
2023-01-25T23:06:26.925Z,176.68
2023-01-25T23:08:59.814Z,237.10
2023-01-25T23:11:32.039Z,124.03
2023-01-25T23:14:18.257Z,99.13
2023-01-25T23:16:44.905Z,129.85
2023-01-25T23:19:11.687Z,149.45
2023-01-25T23:21:38.442Z,360.52
2023-01-25T23:24:05.629Z,98.07
2023-01-25T23:26:37.471Z,171.73
2023-01-25T23:29:08.160Z,194.35
2023-01-25T23:31:35.544Z,276.30
2023-01-25T23:34:04.940Z,275.77
2023-01-25T23:36:34.219Z,631.42
2023-01-25T23:39:01.167Z,768.75
2023-01-25T23:41:30.284Z,682.88
2023-01-25T23:43:58.021Z,605.47
2023-01-25T23:46:25.184Z,545.22
2023-01-25T23:48:52.031Z,443.80
2023-01-25T23:51:18.838Z,177.75
2023-01-25T23:53:46.192Z,617.33
2023-01-25T23:56:20.955Z,187.85
2023-01-25T23:58:48.884Z,368.02
